sensor_id;sensor_type;location;lat;lon;timestamp;P1;durP1;ratioP1;P2;durP2;ratioP2
22318;SDS011;11327;52.334;9.506;2023-09-19T00:02:07;3.10;;;1.70;;
22318;SDS011;11327;52.334;9.506;2023-09-19T00:05:29;3.45;;;1.90;;
22318;SDS011;11327;52.334;9.506;2023-09-19T00:08:52;6.00;;;2.20;;
22318;SDS011;11327;52.334;9.506;2023-09-19T00:12:15;3.70;;;2.35;;
22318;SDS011;11327;52.334;9.506;2023-09-19T00:15:36;3.72;;;2.72;;
22318;SDS011;11327;52.334;9.506;2023-09-19T00:19:02;4.62;;;2.87;;
22318;SDS011;11327;52.334;9.506;2023-09-19T00:22:23;5.35;;;2.50;;
22318;SDS011;11327;52.334;9.506;2023-09-19T00:25:46;4.67;;;2.67;;
22318;SDS011;11327;52.334;9.506;2023-09-19T00:29:06;4.40;;;3.05;;
22318;SDS011;11327;52.334;9.506;2023-09-19T00:32:28;4.92;;;3.00;;
22318;SDS011;11327;52.334;9.506;2023-09-19T00:35:51;6.72;;;3.35;;
22318;SDS011;11327;52.334;9.506;2023-09-19T00:39:13;5.33;;;3.42;;
22318;SDS011;11327;52.334;9.506;2023-09-19T00:42:34;5.85;;;3.40;;
22318;SDS011;11327;52.334;9.506;2023-09-19T00:45:56;7.40;;;3.47;;
22318;SDS011;11327;52.334;9.506;2023-09-19T00:49:17;6.80;;;3.45;;
22318;SDS011;11327;52.334;9.506;2023-09-19T00:52:40;8.30;;;3.58;;
22318;SDS011;11327;52.334;9.506;2023-09-19T00:56:03;5.15;;;3.27;;
22318;SDS011;11327;52.334;9.506;2023-09-19T00:59:26;6.37;;;3.60;;
22318;SDS011;11327;52.334;9.506;2023-09-19T01:02:48;7.10;;;3.52;;
22318;SDS011;11327;52.334;9.506;2023-09-19T01:06:09;6.83;;;3.80;;
22318;SDS011;11327;52.334;9.506;2023-09-19T01:09:30;6.80;;;4.05;;
22318;SDS011;11327;52.334;9.506;2023-09-19T01:13:05;6.45;;;3.87;;
22318;SDS011;11327;52.334;9.506;2023-09-19T01:20:06;7.15;;;4.17;;
22318;SDS011;11327;52.334;9.506;2023-09-19T01:27:50;6.33;;;4.37;;
22318;SDS011;11327;52.334;9.506;2023-09-19T01:31:12;7.92;;;4.50;;
22318;SDS011;11327;52.334;9.506;2023-09-19T01:38:14;6.05;;;4.97;;
22318;SDS011;11327;52.334;9.506;2023-09-19T01:41:38;8.45;;;5.12;;
22318;SDS011;11327;52.334;9.506;2023-09-19T01:52:35;6.17;;;5.17;;
22318;SDS011;11327;52.334;9.506;2023-09-19T01:55:58;8.25;;;5.22;;
22318;SDS011;11327;52.334;9.506;2023-09-19T01:59:23;9.85;;;5.55;;
22318;SDS011;11327;52.334;9.506;2023-09-19T02:02:47;8.80;;;5.50;;
22318;SDS011;11327;52.334;9.506;2023-09-19T02:06:13;7.17;;;5.10;;
22318;SDS011;11327;52.334;9.506;2023-09-19T02:09:36;7.30;;;4.75;;
22318;SDS011;11327;52.334;9.506;2023-09-19T02:12:58;7.37;;;4.50;;
22318;SDS011;11327;52.334;9.506;2023-09-19T02:16:19;6.60;;;5.05;;
22318;SDS011;11327;52.334;9.506;2023-09-19T02:19:41;7.85;;;5.33;;
22318;SDS011;11327;52.334;9.506;2023-09-19T02:23:01;10.53;;;5.55;;
22318;SDS011;11327;52.334;9.506;2023-09-19T02:26:23;7.35;;;5.30;;
22318;SDS011;11327;52.334;9.506;2023-09-19T02:29:44;8.78;;;4.83;;
22318;SDS011;11327;52.334;9.506;2023-09-19T02:33:04;9.05;;;5.40;;
22318;SDS011;11327;52.334;9.506;2023-09-19T02:36:25;8.10;;;5.45;;
22318;SDS011;11327;52.334;9.506;2023-09-19T02:39:46;10.28;;;6.00;;
22318;SDS011;11327;52.334;9.506;2023-09-19T02:43:07;8.65;;;5.70;;
22318;SDS011;11327;52.334;9.506;2023-09-19T02:46:29;7.72;;;5.72;;
22318;SDS011;11327;52.334;9.506;2023-09-19T02:49:50;11.95;;;5.97;;
22318;SDS011;11327;52.334;9.506;2023-09-19T02:53:11;9.60;;;5.50;;
22318;SDS011;11327;52.334;9.506;2023-09-19T02:56:33;8.98;;;5.42;;
22318;SDS011;11327;52.334;9.506;2023-09-19T02:59:56;10.18;;;5.08;;
22318;SDS011;11327;52.334;9.506;2023-09-19T03:03:17;7.92;;;4.60;;
22318;SDS011;11327;52.334;9.506;2023-09-19T03:06:38;7.22;;;4.37;;
22318;SDS011;11327;52.334;9.506;2023-09-19T03:10:00;6.67;;;4.20;;
22318;SDS011;11327;52.334;9.506;2023-09-19T03:13:21;10.68;;;4.15;;
22318;SDS011;11327;52.334;9.506;2023-09-19T03:16:42;7.67;;;3.92;;
22318;SDS011;11327;52.334;9.506;2023-09-19T03:20:05;7.15;;;4.12;;
22318;SDS011;11327;52.334;9.506;2023-09-19T03:23:28;8.58;;;3.98;;
22318;SDS011;11327;52.334;9.506;2023-09-19T03:26:49;6.58;;;3.45;;
22318;SDS011;11327;52.334;9.506;2023-09-19T03:30:10;9.55;;;3.60;;
22318;SDS011;11327;52.334;9.506;2023-09-19T03:33:33;8.43;;;3.55;;
22318;SDS011;11327;52.334;9.506;2023-09-19T03:36:54;11.63;;;3.90;;
22318;SDS011;11327;52.334;9.506;2023-09-19T03:40:16;9.18;;;3.92;;
22318;SDS011;11327;52.334;9.506;2023-09-19T03:43:37;7.95;;;3.60;;
22318;SDS011;11327;52.334;9.506;2023-09-19T03:46:58;7.03;;;3.45;;
22318;SDS011;11327;52.334;9.506;2023-09-19T03:50:18;11.40;;;3.55;;
22318;SDS011;11327;52.334;9.506;2023-09-19T03:53:39;5.55;;;3.17;;
22318;SDS011;11327;52.334;9.506;2023-09-19T03:57:00;8.50;;;3.80;;
22318;SDS011;11327;52.334;9.506;2023-09-19T04:00:21;6.08;;;3.22;;
22318;SDS011;11327;52.334;9.506;2023-09-19T04:03:43;9.50;;;3.75;;
22318;SDS011;11327;52.334;9.506;2023-09-19T04:07:08;7.58;;;3.40;;
22318;SDS011;11327;52.334;9.506;2023-09-19T04:10:28;8.93;;;4.55;;
22318;SDS011;11327;52.334;9.506;2023-09-19T04:13:49;8.93;;;3.70;;
22318;SDS011;11327;52.334;9.506;2023-09-19T04:17:10;7.08;;;3.80;;
22318;SDS011;11327;52.334;9.506;2023-09-19T04:20:31;9.78;;;4.10;;
22318;SDS011;11327;52.334;9.506;2023-09-19T04:23:52;9.28;;;3.95;;
22318;SDS011;11327;52.334;9.506;2023-09-19T04:27:12;10.60;;;4.08;;
22318;SDS011;11327;52.334;9.506;2023-09-19T04:30:35;9.15;;;4.10;;
22318;SDS011;11327;52.334;9.506;2023-09-19T04:33:55;10.60;;;4.15;;
22318;SDS011;11327;52.334;9.506;2023-09-19T04:37:17;7.53;;;4.12;;
22318;SDS011;11327;52.334;9.506;2023-09-19T04:40:37;8.13;;;4.80;;
22318;SDS011;11327;52.334;9.506;2023-09-19T04:44:00;10.25;;;5.17;;
22318;SDS011;11327;52.334;9.506;2023-09-19T04:47:21;11.83;;;6.30;;
22318;SDS011;11327;52.334;9.506;2023-09-19T04:50:42;12.60;;;6.30;;
22318;SDS011;11327;52.334;9.506;2023-09-19T04:54:04;10.75;;;6.33;;
22318;SDS011;11327;52.334;9.506;2023-09-19T04:57:25;11.30;;;6.78;;
22318;SDS011;11327;52.334;9.506;2023-09-19T05:00:46;10.28;;;6.55;;
22318;SDS011;11327;52.334;9.506;2023-09-19T05:04:07;10.90;;;6.95;;
22318;SDS011;11327;52.334;9.506;2023-09-19T05:07:27;13.55;;;7.08;;
22318;SDS011;11327;52.334;9.506;2023-09-19T05:10:48;11.35;;;6.90;;
22318;SDS011;11327;52.334;9.506;2023-09-19T05:14:09;11.40;;;6.65;;
22318;SDS011;11327;52.334;9.506;2023-09-19T05:17:30;9.20;;;6.50;;
22318;SDS011;11327;52.334;9.506;2023-09-19T05:20:51;15.13;;;7.03;;
22318;SDS011;11327;52.334;9.506;2023-09-19T05:24:13;10.82;;;6.62;;
22318;SDS011;11327;52.334;9.506;2023-09-19T05:27:37;12.18;;;6.75;;
22318;SDS011;11327;52.334;9.506;2023-09-19T05:31:00;11.73;;;6.35;;
22318;SDS011;11327;52.334;9.506;2023-09-19T05:34:23;15.35;;;6.78;;
22318;SDS011;11327;52.334;9.506;2023-09-19T05:37:45;10.68;;;6.00;;
22318;SDS011;11327;52.334;9.506;2023-09-19T05:41:06;11.25;;;6.28;;
22318;SDS011;11327;52.334;9.506;2023-09-19T05:44:28;14.38;;;6.10;;
22318;SDS011;11327;52.334;9.506;2023-09-19T05:47:51;10.45;;;6.28;;
22318;SDS011;11327;52.334;9.506;2023-09-19T05:51:13;10.93;;;5.97;;
22318;SDS011;11327;52.334;9.506;2023-09-19T05:54:34;10.30;;;6.10;;
22318;SDS011;11327;52.334;9.506;2023-09-19T05:57:55;10.65;;;5.65;;
22318;SDS011;11327;52.334;9.506;2023-09-19T06:01:15;10.60;;;5.67;;
22318;SDS011;11327;52.334;9.506;2023-09-19T06:04:36;10.82;;;5.90;;
22318;SDS011;11327;52.334;9.506;2023-09-19T06:07:59;9.20;;;5.97;;
22318;SDS011;11327;52.334;9.506;2023-09-19T06:11:20;13.00;;;6.25;;
22318;SDS011;11327;52.334;9.506;2023-09-19T06:14:41;11.20;;;5.45;;
22318;SDS011;11327;52.334;9.506;2023-09-19T06:18:03;11.03;;;5.70;;
22318;SDS011;11327;52.334;9.506;2023-09-19T06:21:25;12.63;;;6.12;;
22318;SDS011;11327;52.334;9.506;2023-09-19T06:24:47;11.85;;;4.97;;
22318;SDS011;11327;52.334;9.506;2023-09-19T06:28:08;10.70;;;5.60;;
22318;SDS011;11327;52.334;9.506;2023-09-19T06:31:32;11.15;;;5.20;;
22318;SDS011;11327;52.334;9.506;2023-09-19T06:34:53;11.35;;;4.95;;
22318;SDS011;11327;52.334;9.506;2023-09-19T06:38:18;13.20;;;5.10;;
22318;SDS011;11327;52.334;9.506;2023-09-19T06:41:39;14.10;;;4.33;;
22318;SDS011;11327;52.334;9.506;2023-09-19T06:45:02;10.45;;;3.98;;
22318;SDS011;11327;52.334;9.506;2023-09-19T06:48:27;8.50;;;2.85;;
22318;SDS011;11327;52.334;9.506;2023-09-19T06:51:49;7.22;;;2.55;;
22318;SDS011;11327;52.334;9.506;2023-09-19T06:55:10;11.88;;;3.02;;
22318;SDS011;11327;52.334;9.506;2023-09-19T06:58:32;11.25;;;2.58;;
22318;SDS011;11327;52.334;9.506;2023-09-19T07:01:53;7.42;;;2.50;;
22318;SDS011;11327;52.334;9.506;2023-09-19T07:05:14;9.25;;;2.47;;
22318;SDS011;11327;52.334;9.506;2023-09-19T07:08:35;9.58;;;2.10;;
22318;SDS011;11327;52.334;9.506;2023-09-19T07:11:56;9.78;;;2.50;;
22318;SDS011;11327;52.334;9.506;2023-09-19T07:15:16;8.88;;;2.30;;
22318;SDS011;11327;52.334;9.506;2023-09-19T07:18:37;7.12;;;2.30;;
22318;SDS011;11327;52.334;9.506;2023-09-19T07:21:58;8.40;;;2.08;;
22318;SDS011;11327;52.334;9.506;2023-09-19T07:25:19;8.85;;;2.08;;
22318;SDS011;11327;52.334;9.506;2023-09-19T07:28:41;7.90;;;2.17;;
22318;SDS011;11327;52.334;9.506;2023-09-19T07:32:02;9.85;;;2.10;;
22318;SDS011;11327;52.334;9.506;2023-09-19T07:35:22;10.10;;;2.25;;
22318;SDS011;11327;52.334;9.506;2023-09-19T07:38:43;8.90;;;1.82;;
22318;SDS011;11327;52.334;9.506;2023-09-19T07:42:06;7.20;;;1.57;;
22318;SDS011;11327;52.334;9.506;2023-09-19T07:45:28;8.15;;;1.90;;
22318;SDS011;11327;52.334;9.506;2023-09-19T07:48:50;8.53;;;2.10;;
22318;SDS011;11327;52.334;9.506;2023-09-19T07:52:11;8.23;;;1.80;;
22318;SDS011;11327;52.334;9.506;2023-09-19T07:55:33;6.37;;;2.00;;
22318;SDS011;11327;52.334;9.506;2023-09-19T07:58:54;8.93;;;2.10;;
22318;SDS011;11327;52.334;9.506;2023-09-19T08:02:15;8.48;;;2.10;;
22318;SDS011;11327;52.334;9.506;2023-09-19T08:05:38;6.53;;;1.82;;
22318;SDS011;11327;52.334;9.506;2023-09-19T08:09:01;7.08;;;1.62;;
22318;SDS011;11327;52.334;9.506;2023-09-19T08:12:24;8.35;;;1.90;;
22318;SDS011;11327;52.334;9.506;2023-09-19T08:15:45;7.00;;;1.80;;
22318;SDS011;11327;52.334;9.506;2023-09-19T08:19:06;8.98;;;2.10;;
22318;SDS011;11327;52.334;9.506;2023-09-19T08:22:27;6.85;;;2.25;;
22318;SDS011;11327;52.334;9.506;2023-09-19T08:25:48;9.25;;;1.72;;
22318;SDS011;11327;52.334;9.506;2023-09-19T08:29:09;6.87;;;1.50;;
22318;SDS011;11327;52.334;9.506;2023-09-19T08:32:31;9.33;;;2.08;;
22318;SDS011;11327;52.334;9.506;2023-09-19T08:35:52;7.33;;;1.85;;
22318;SDS011;11327;52.334;9.506;2023-09-19T08:39:15;5.50;;;1.90;;
22318;SDS011;11327;52.334;9.506;2023-09-19T08:46:11;9.13;;;2.62;;
22318;SDS011;11327;52.334;9.506;2023-09-19T08:53:15;4.70;;;1.82;;
22318;SDS011;11327;52.334;9.506;2023-09-19T08:56:38;4.12;;;1.95;;
22318;SDS011;11327;52.334;9.506;2023-09-19T09:00:00;7.15;;;2.55;;
22318;SDS011;11327;52.334;9.506;2023-09-19T09:03:25;6.40;;;2.10;;
22318;SDS011;11327;52.334;9.506;2023-09-19T09:06:46;10.32;;;2.30;;
22318;SDS011;11327;52.334;9.506;2023-09-19T09:10:10;8.68;;;2.50;;
22318;SDS011;11327;52.334;9.506;2023-09-19T09:13:32;6.62;;;1.87;;
22318;SDS011;11327;52.334;9.506;2023-09-19T09:16:55;7.42;;;2.22;;
22318;SDS011;11327;52.334;9.506;2023-09-19T09:20:17;7.85;;;1.70;;
22318;SDS011;11327;52.334;9.506;2023-09-19T09:23:39;5.60;;;1.92;;
22318;SDS011;11327;52.334;9.506;2023-09-19T09:26:59;6.37;;;2.22;;
22318;SDS011;11327;52.334;9.506;2023-09-19T09:30:33;9.78;;;2.22;;
22318;SDS011;11327;52.334;9.506;2023-09-19T09:33:55;7.00;;;1.90;;
22318;SDS011;11327;52.334;9.506;2023-09-19T09:37:18;7.20;;;2.12;;
22318;SDS011;11327;52.334;9.506;2023-09-19T09:40:45;6.08;;;2.15;;
22318;SDS011;11327;52.334;9.506;2023-09-19T09:44:15;5.00;;;1.75;;
22318;SDS011;11327;52.334;9.506;2023-09-19T09:47:41;7.58;;;2.12;;
22318;SDS011;11327;52.334;9.506;2023-09-19T09:51:16;7.37;;;2.10;;
22318;SDS011;11327;52.334;9.506;2023-09-19T09:55:00;8.48;;;2.30;;
22318;SDS011;11327;52.334;9.506;2023-09-19T09:58:24;6.30;;;2.10;;
22318;SDS011;11327;52.334;9.506;2023-09-19T10:01:47;6.70;;;1.98;;
22318;SDS011;11327;52.334;9.506;2023-09-19T10:08:56;7.10;;;2.00;;
22318;SDS011;11327;52.334;9.506;2023-09-19T10:12:32;5.47;;;1.70;;
22318;SDS011;11327;52.334;9.506;2023-09-19T10:15:55;8.50;;;2.10;;
22318;SDS011;11327;52.334;9.506;2023-09-19T10:19:29;6.62;;;2.00;;
22318;SDS011;11327;52.334;9.506;2023-09-19T10:22:54;6.15;;;2.33;;
22318;SDS011;11327;52.334;9.506;2023-09-19T10:26:19;7.17;;;1.90;;
22318;SDS011;11327;52.334;9.506;2023-09-19T10:29:44;9.40;;;2.62;;
22318;SDS011;11327;52.334;9.506;2023-09-19T10:33:05;7.65;;;2.37;;
22318;SDS011;11327;52.334;9.506;2023-09-19T10:36:26;9.03;;;2.55;;
22318;SDS011;11327;52.334;9.506;2023-09-19T10:39:49;7.78;;;2.45;;
22318;SDS011;11327;52.334;9.506;2023-09-19T10:43:13;7.15;;;2.02;;
22318;SDS011;11327;52.334;9.506;2023-09-19T10:46:41;8.83;;;2.10;;
22318;SDS011;11327;52.334;9.506;2023-09-19T10:50:02;6.50;;;2.12;;
22318;SDS011;11327;52.334;9.506;2023-09-19T10:53:26;7.33;;;2.22;;
22318;SDS011;11327;52.334;9.506;2023-09-19T10:56:49;9.23;;;2.47;;
22318;SDS011;11327;52.334;9.506;2023-09-19T11:00:13;6.72;;;2.20;;
22318;SDS011;11327;52.334;9.506;2023-09-19T11:03:48;8.28;;;2.25;;
22318;SDS011;11327;52.334;9.506;2023-09-19T11:07:12;10.63;;;2.20;;
22318;SDS011;11327;52.334;9.506;2023-09-19T11:10:44;7.15;;;2.20;;
22318;SDS011;11327;52.334;9.506;2023-09-19T11:17:44;7.28;;;1.70;;
22318;SDS011;11327;52.334;9.506;2023-09-19T11:24:51;9.55;;;2.33;;
22318;SDS011;11327;52.334;9.506;2023-09-19T11:31:44;8.23;;;2.20;;
22318;SDS011;11327;52.334;9.506;2023-09-19T11:35:08;4.45;;;1.82;;
22318;SDS011;11327;52.334;9.506;2023-09-19T11:46:05;7.27;;;2.07;;
22318;SDS011;11327;52.334;9.506;2023-09-19T11:49:26;5.20;;;1.92;;
22318;SDS011;11327;52.334;9.506;2023-09-19T11:52:53;6.47;;;2.10;;
22318;SDS011;11327;52.334;9.506;2023-09-19T11:56:16;7.65;;;2.20;;
22318;SDS011;11327;52.334;9.506;2023-09-19T11:59:38;6.35;;;2.20;;
22318;SDS011;11327;52.334;9.506;2023-09-19T12:03:00;6.67;;;2.17;;
22318;SDS011;11327;52.334;9.506;2023-09-19T12:06:26;7.25;;;2.25;;
22318;SDS011;11327;52.334;9.506;2023-09-19T12:09:50;6.33;;;1.90;;
22318;SDS011;11327;52.334;9.506;2023-09-19T12:13:17;8.65;;;1.95;;
22318;SDS011;11327;52.334;9.506;2023-09-19T12:16:39;9.80;;;2.95;;
22318;SDS011;11327;52.334;9.506;2023-09-19T12:19:59;6.17;;;2.25;;
22318;SDS011;11327;52.334;9.506;2023-09-19T12:23:21;7.83;;;2.40;;
22318;SDS011;11327;52.334;9.506;2023-09-19T12:26:42;7.92;;;2.62;;
22318;SDS011;11327;52.334;9.506;2023-09-19T12:30:06;6.53;;;1.90;;
22318;SDS011;11327;52.334;9.506;2023-09-19T12:33:28;6.08;;;2.00;;
22318;SDS011;11327;52.334;9.506;2023-09-19T12:37:01;7.85;;;2.22;;
22318;SDS011;11327;52.334;9.506;2023-09-19T12:40:28;7.45;;;2.55;;
22318;SDS011;11327;52.334;9.506;2023-09-19T12:43:52;7.03;;;2.45;;
22318;SDS011;11327;52.334;9.506;2023-09-19T12:47:15;8.70;;;2.40;;
22318;SDS011;11327;52.334;9.506;2023-09-19T12:50:58;6.85;;;2.10;;
22318;SDS011;11327;52.334;9.506;2023-09-19T12:54:20;7.85;;;2.20;;
22318;SDS011;11327;52.334;9.506;2023-09-19T12:57:42;6.58;;;2.20;;
22318;SDS011;11327;52.334;9.506;2023-09-19T13:01:11;6.75;;;2.47;;
22318;SDS011;11327;52.334;9.506;2023-09-19T13:04:29;6.15;;;2.10;;
22318;SDS011;11327;52.334;9.506;2023-09-19T13:07:50;8.73;;;2.37;;
22318;SDS011;11327;52.334;9.506;2023-09-19T13:14:38;6.08;;;2.30;;
22318;SDS011;11327;52.334;9.506;2023-09-19T13:18:01;7.42;;;2.30;;
22318;SDS011;11327;52.334;9.506;2023-09-19T13:21:27;7.92;;;2.20;;
22318;SDS011;11327;52.334;9.506;2023-09-19T13:24:56;7.08;;;1.92;;
22318;SDS011;11327;52.334;9.506;2023-09-19T13:28:18;5.78;;;1.87;;
22318;SDS011;11327;52.334;9.506;2023-09-19T13:31:39;10.38;;;2.35;;
22318;SDS011;11327;52.334;9.506;2023-09-19T13:35:02;7.25;;;2.10;;
22318;SDS011;11327;52.334;9.506;2023-09-19T13:38:23;5.25;;;2.20;;
22318;SDS011;11327;52.334;9.506;2023-09-19T13:41:44;7.15;;;2.42;;
22318;SDS011;11327;52.334;9.506;2023-09-19T13:45:07;7.05;;;2.20;;
22318;SDS011;11327;52.334;9.506;2023-09-19T13:48:30;6.45;;;2.22;;
22318;SDS011;11327;52.334;9.506;2023-09-19T13:51:51;6.87;;;2.12;;
22318;SDS011;11327;52.334;9.506;2023-09-19T13:55:11;6.28;;;2.08;;
22318;SDS011;11327;52.334;9.506;2023-09-19T13:58:34;5.35;;;2.02;;
22318;SDS011;11327;52.334;9.506;2023-09-19T14:01:55;5.75;;;2.25;;
22318;SDS011;11327;52.334;9.506;2023-09-19T14:05:17;8.48;;;2.47;;
22318;SDS011;11327;52.334;9.506;2023-09-19T14:08:39;8.95;;;2.37;;
22318;SDS011;11327;52.334;9.506;2023-09-19T14:12:00;6.40;;;2.08;;
22318;SDS011;11327;52.334;9.506;2023-09-19T14:15:20;6.92;;;2.37;;
22318;SDS011;11327;52.334;9.506;2023-09-19T14:18:44;7.55;;;2.02;;
22318;SDS011;11327;52.334;9.506;2023-09-19T14:22:06;6.35;;;2.00;;
22318;SDS011;11327;52.334;9.506;2023-09-19T14:25:28;5.55;;;1.80;;
22318;SDS011;11327;52.334;9.506;2023-09-19T14:28:50;7.20;;;2.05;;
22318;SDS011;11327;52.334;9.506;2023-09-19T14:32:11;6.10;;;1.90;;
22318;SDS011;11327;52.334;9.506;2023-09-19T14:35:33;6.35;;;2.05;;
22318;SDS011;11327;52.334;9.506;2023-09-19T14:38:53;4.33;;;1.77;;
22318;SDS011;11327;52.334;9.506;2023-09-19T14:42:15;7.42;;;2.35;;
22318;SDS011;11327;52.334;9.506;2023-09-19T14:45:37;6.95;;;2.05;;
22318;SDS011;11327;52.334;9.506;2023-09-19T14:48:58;5.05;;;1.72;;
22318;SDS011;11327;52.334;9.506;2023-09-19T14:52:20;7.45;;;1.80;;
22318;SDS011;11327;52.334;9.506;2023-09-19T14:55:40;4.78;;;1.85;;
22318;SDS011;11327;52.334;9.506;2023-09-19T14:59:03;4.55;;;1.50;;
22318;SDS011;11327;52.334;9.506;2023-09-19T15:02:24;3.87;;;1.67;;
22318;SDS011;11327;52.334;9.506;2023-09-19T15:05:45;6.35;;;1.80;;
22318;SDS011;11327;52.334;9.506;2023-09-19T15:09:06;9.08;;;1.80;;
22318;SDS011;11327;52.334;9.506;2023-09-19T15:12:29;6.95;;;1.72;;
22318;SDS011;11327;52.334;9.506;2023-09-19T15:15:49;4.90;;;1.60;;
22318;SDS011;11327;52.334;9.506;2023-09-19T15:19:11;6.03;;;1.95;;
22318;SDS011;11327;52.334;9.506;2023-09-19T15:22:32;4.22;;;1.40;;
22318;SDS011;11327;52.334;9.506;2023-09-19T15:25:55;3.65;;;1.45;;
22318;SDS011;11327;52.334;9.506;2023-09-19T15:29:16;5.28;;;1.55;;
22318;SDS011;11327;52.334;9.506;2023-09-19T15:32:38;4.28;;;1.55;;
22318;SDS011;11327;52.334;9.506;2023-09-19T15:39:32;5.72;;;1.62;;
22318;SDS011;11327;52.334;9.506;2023-09-19T15:42:57;4.47;;;1.37;;
22318;SDS011;11327;52.334;9.506;2023-09-19T15:46:18;4.95;;;1.50;;
22318;SDS011;11327;52.334;9.506;2023-09-19T15:49:39;4.30;;;1.30;;
22318;SDS011;11327;52.334;9.506;2023-09-19T15:53:00;4.53;;;1.70;;
22318;SDS011;11327;52.334;9.506;2023-09-19T15:56:21;4.45;;;1.40;;
22318;SDS011;11327;52.334;9.506;2023-09-19T15:59:43;4.15;;;1.60;;
22318;SDS011;11327;52.334;9.506;2023-09-19T16:03:05;3.75;;;1.60;;
22318;SDS011;11327;52.334;9.506;2023-09-19T16:06:29;4.25;;;1.60;;
22318;SDS011;11327;52.334;9.506;2023-09-19T16:09:53;4.62;;;1.70;;
22318;SDS011;11327;52.334;9.506;2023-09-19T16:13:14;4.53;;;1.90;;
22318;SDS011;11327;52.334;9.506;2023-09-19T16:16:35;6.42;;;2.05;;
22318;SDS011;11327;52.334;9.506;2023-09-19T16:19:56;4.50;;;1.67;;
22318;SDS011;11327;52.334;9.506;2023-09-19T16:23:17;6.25;;;1.80;;
22318;SDS011;11327;52.334;9.506;2023-09-19T16:26:37;4.87;;;1.60;;
22318;SDS011;11327;52.334;9.506;2023-09-19T16:29:58;6.47;;;1.80;;
22318;SDS011;11327;52.334;9.506;2023-09-19T16:33:19;5.37;;;1.80;;
22318;SDS011;11327;52.334;9.506;2023-09-19T16:36:40;3.40;;;1.52;;
22318;SDS011;11327;52.334;9.506;2023-09-19T16:40:01;4.95;;;1.67;;
22318;SDS011;11327;52.334;9.506;2023-09-19T16:43:22;5.12;;;1.50;;
22318;SDS011;11327;52.334;9.506;2023-09-19T16:46:43;5.03;;;1.62;;
22318;SDS011;11327;52.334;9.506;2023-09-19T16:50:04;4.08;;;1.65;;
22318;SDS011;11327;52.334;9.506;2023-09-19T16:53:26;8.15;;;2.00;;
22318;SDS011;11327;52.334;9.506;2023-09-19T16:56:47;5.78;;;1.98;;
22318;SDS011;11327;52.334;9.506;2023-09-19T17:00:08;6.67;;;1.82;;
22318;SDS011;11327;52.334;9.506;2023-09-19T17:03:30;5.78;;;1.82;;
22318;SDS011;11327;52.334;9.506;2023-09-19T17:06:52;4.97;;;1.65;;
22318;SDS011;11327;52.334;9.506;2023-09-19T17:10:13;3.17;;;1.50;;
22318;SDS011;11327;52.334;9.506;2023-09-19T17:13:34;3.98;;;1.35;;
22318;SDS011;11327;52.334;9.506;2023-09-19T17:20:22;6.22;;;1.70;;
22318;SDS011;11327;52.334;9.506;2023-09-19T17:23:43;4.40;;;1.60;;
22318;SDS011;11327;52.334;9.506;2023-09-19T17:27:04;3.08;;;1.50;;
22318;SDS011;11327;52.334;9.506;2023-09-19T17:30:26;8.03;;;1.82;;
22318;SDS011;11327;52.334;9.506;2023-09-19T17:33:47;3.20;;;1.30;;
22318;SDS011;11327;52.334;9.506;2023-09-19T17:37:09;6.00;;;1.55;;
22318;SDS011;11327;52.334;9.506;2023-09-19T17:40:37;3.42;;;1.50;;
22318;SDS011;11327;52.334;9.506;2023-09-19T17:43:56;3.80;;;1.20;;
22318;SDS011;11327;52.334;9.506;2023-09-19T17:47:17;3.83;;;1.22;;
22318;SDS011;11327;52.334;9.506;2023-09-19T17:50:38;4.33;;;1.67;;
22318;SDS011;11327;52.334;9.506;2023-09-19T17:53:59;4.53;;;1.30;;
22318;SDS011;11327;52.334;9.506;2023-09-19T17:57:21;5.03;;;1.30;;
22318;SDS011;11327;52.334;9.506;2023-09-19T18:00:42;4.25;;;1.35;;
22318;SDS011;11327;52.334;9.506;2023-09-19T18:04:05;4.97;;;1.35;;
22318;SDS011;11327;52.334;9.506;2023-09-19T18:07:26;4.33;;;1.30;;
22318;SDS011;11327;52.334;9.506;2023-09-19T18:10:47;4.53;;;1.30;;
22318;SDS011;11327;52.334;9.506;2023-09-19T18:14:08;4.92;;;1.62;;
22318;SDS011;11327;52.334;9.506;2023-09-19T18:17:30;2.87;;;1.12;;
22318;SDS011;11327;52.334;9.506;2023-09-19T18:20:50;4.30;;;1.70;;
22318;SDS011;11327;52.334;9.506;2023-09-19T18:24:11;4.58;;;3.10;;
22318;SDS011;11327;52.334;9.506;2023-09-19T18:27:34;5.40;;;1.50;;
22318;SDS011;11327;52.334;9.506;2023-09-19T18:30:55;4.00;;;2.10;;
22318;SDS011;11327;52.334;9.506;2023-09-19T18:34:17;5.10;;;1.50;;
22318;SDS011;11327;52.334;9.506;2023-09-19T18:37:37;3.58;;;1.12;;
22318;SDS011;11327;52.334;9.506;2023-09-19T18:40:58;4.17;;;1.45;;
22318;SDS011;11327;52.334;9.506;2023-09-19T18:44:19;4.65;;;1.20;;
22318;SDS011;11327;52.334;9.506;2023-09-19T18:47:40;3.52;;;1.40;;
22318;SDS011;11327;52.334;9.506;2023-09-19T18:51:07;4.17;;;1.12;;
22318;SDS011;11327;52.334;9.506;2023-09-19T18:54:28;2.87;;;1.25;;
22318;SDS011;11327;52.334;9.506;2023-09-19T18:57:51;3.02;;;1.22;;
22318;SDS011;11327;52.334;9.506;2023-09-19T19:01:12;2.70;;;1.22;;
22318;SDS011;11327;52.334;9.506;2023-09-19T19:04:35;3.98;;;1.00;;
22318;SDS011;11327;52.334;9.506;2023-09-19T19:08:00;3.15;;;0.93;;
22318;SDS011;11327;52.334;9.506;2023-09-19T19:11:21;4.95;;;1.07;;
22318;SDS011;11327;52.334;9.506;2023-09-19T19:14:43;2.27;;;0.95;;
22318;SDS011;11327;52.334;9.506;2023-09-19T19:18:04;4.97;;;0.93;;
22318;SDS011;11327;52.334;9.506;2023-09-19T19:21:25;3.50;;;1.00;;
22318;SDS011;11327;52.334;9.506;2023-09-19T19:24:46;4.70;;;0.90;;
22318;SDS011;11327;52.334;9.506;2023-09-19T19:28:07;3.40;;;0.90;;
22318;SDS011;11327;52.334;9.506;2023-09-19T19:31:28;1.67;;;0.80;;
22318;SDS011;11327;52.334;9.506;2023-09-19T19:34:50;2.60;;;0.95;;
22318;SDS011;11327;52.334;9.506;2023-09-19T19:38:11;3.17;;;1.10;;
22318;SDS011;11327;52.334;9.506;2023-09-19T19:41:34;2.62;;;0.88;;
22318;SDS011;11327;52.334;9.506;2023-09-19T19:44:57;2.92;;;1.00;;
22318;SDS011;11327;52.334;9.506;2023-09-19T19:48:18;3.22;;;1.00;;
22318;SDS011;11327;52.334;9.506;2023-09-19T19:51:39;4.12;;;0.80;;
22318;SDS011;11327;52.334;9.506;2023-09-19T19:55:02;2.90;;;0.93;;
22318;SDS011;11327;52.334;9.506;2023-09-19T19:58:23;3.50;;;1.00;;
22318;SDS011;11327;52.334;9.506;2023-09-19T20:01:45;3.65;;;1.27;;
22318;SDS011;11327;52.334;9.506;2023-09-19T20:05:06;3.52;;;0.95;;
22318;SDS011;11327;52.334;9.506;2023-09-19T20:08:27;2.62;;;0.90;;
22318;SDS011;11327;52.334;9.506;2023-09-19T20:11:48;3.10;;;1.15;;
22318;SDS011;11327;52.334;9.506;2023-09-19T20:15:09;3.27;;;0.82;;
22318;SDS011;11327;52.334;9.506;2023-09-19T20:18:30;2.40;;;0.80;;
22318;SDS011;11327;52.334;9.506;2023-09-19T20:21:52;3.33;;;1.32;;
22318;SDS011;11327;52.334;9.506;2023-09-19T20:25:15;3.58;;;1.07;;
22318;SDS011;11327;52.334;9.506;2023-09-19T20:28:37;2.22;;;0.90;;
22318;SDS011;11327;52.334;9.506;2023-09-19T20:31:59;2.98;;;1.10;;
22318;SDS011;11327;52.334;9.506;2023-09-19T20:35:20;2.12;;;0.82;;
22318;SDS011;11327;52.334;9.506;2023-09-19T20:38:42;4.35;;;1.10;;
22318;SDS011;11327;52.334;9.506;2023-09-19T20:42:03;1.80;;;0.90;;
22318;SDS011;11327;52.334;9.506;2023-09-19T20:45:24;2.80;;;0.78;;
22318;SDS011;11327;52.334;9.506;2023-09-19T20:48:45;2.37;;;1.00;;
22318;SDS011;11327;52.334;9.506;2023-09-19T20:52:08;4.75;;;1.10;;
22318;SDS011;11327;52.334;9.506;2023-09-19T20:55:29;4.22;;;1.10;;
22318;SDS011;11327;52.334;9.506;2023-09-19T20:58:50;3.02;;;0.90;;
22318;SDS011;11327;52.334;9.506;2023-09-19T21:02:11;3.83;;;1.07;;
22318;SDS011;11327;52.334;9.506;2023-09-19T21:05:31;3.30;;;1.05;;
22318;SDS011;11327;52.334;9.506;2023-09-19T21:08:52;1.98;;;0.75;;
22318;SDS011;11327;52.334;9.506;2023-09-19T21:12:13;4.80;;;1.12;;
22318;SDS011;11327;52.334;9.506;2023-09-19T21:15:40;2.67;;;1.10;;